createdAt,value
2022-10-22T03:57:28.492Z,30.90
2022-10-22T04:00:52.115Z,30.00
2022-10-22T04:04:15.510Z,31.40
2022-10-22T04:07:39.336Z,33.80
2022-10-22T04:11:03.101Z,30.90
2022-10-22T04:14:26.424Z,32.70
2022-10-22T04:17:49.692Z,32.80
2022-10-22T04:21:14.539Z,33.80
2022-10-22T04:24:38.409Z,35.00
2022-10-22T04:28:01.805Z,34.60
2022-10-22T04:31:26.419Z,35.90
2022-10-22T04:34:49.599Z,38.50
2022-10-22T04:38:13.951Z,38.70
2022-10-22T04:41:39.268Z,38.20
2022-10-22T04:45:02.504Z,37.90
2022-10-22T04:48:25.953Z,37.20
2022-10-22T04:51:49.078Z,37.70
2022-10-22T04:55:12.640Z,39.60
2022-10-22T04:58:35.889Z,39.20
2022-10-22T05:01:59.885Z,40.20
2022-10-22T05:05:23.877Z,38.80
2022-10-22T05:08:48.132Z,39.90
2022-10-22T05:12:12.212Z,38.60
2022-10-22T05:15:36.046Z,39.50
2022-10-22T05:19:00.789Z,43.10
2022-10-22T05:22:24.330Z,40.30
2022-10-22T05:25:47.690Z,42.30
2022-10-22T05:29:11.569Z,41.10
2022-10-22T05:32:36.080Z,43.00
2022-10-22T05:35:59.829Z,40.60
2022-10-22T05:39:23.412Z,42.20
2022-10-22T05:42:46.976Z,42.70
2022-10-22T05:46:12.913Z,42.00
2022-10-22T05:49:36.328Z,44.60
2022-10-22T05:52:59.759Z,42.90
2022-10-22T05:56:24.087Z,45.50
2022-10-22T05:59:48.096Z,42.70
2022-10-22T06:03:11.301Z,44.00
2022-10-22T06:06:37.222Z,42.50
2022-10-22T06:10:01.721Z,38.50
2022-10-22T06:13:25.814Z,43.50
2022-10-22T06:16:49.750Z,43.30
2022-10-22T06:20:14.653Z,42.90
2022-10-22T06:23:39.048Z,42.90
2022-10-22T06:27:02.369Z,42.70
2022-10-22T06:30:25.880Z,44.30
2022-10-22T06:33:49.092Z,41.60
2022-10-22T06:37:13.334Z,41.50
2022-10-22T06:40:36.483Z,42.80
2022-10-22T06:50:00.328Z,39.40
2022-10-22T06:53:27.310Z,41.00
2022-10-22T06:56:54.138Z,42.00
2022-10-22T07:00:22.381Z,40.80
2022-10-22T07:03:51.242Z,37.20
2022-10-22T07:07:17.846Z,40.90
2022-10-22T07:10:44.454Z,38.50
2022-10-22T07:14:11.437Z,41.40
2022-10-22T07:21:08.952Z,38.70
2022-10-22T07:24:35.821Z,39.50
2022-10-22T07:28:02.570Z,44.00
2022-10-22T07:31:30.354Z,42.20
2022-10-22T07:34:57.191Z,41.40
2022-10-22T07:38:24.091Z,39.40
2022-10-22T07:41:50.840Z,40.50
2022-10-22T07:45:17.788Z,41.00
2022-10-22T07:48:44.453Z,42.00
2022-10-22T07:52:11.589Z,40.60
2022-10-22T07:55:39.146Z,39.50
2022-10-22T07:59:06.043Z,38.60
2022-10-22T08:02:32.794Z,37.80
2022-10-22T08:06:00.147Z,41.30
2022-10-22T08:09:26.965Z,38.90
2022-10-22T08:12:53.710Z,38.70
2022-10-22T08:16:20.619Z,38.20
2022-10-22T08:19:47.431Z,37.00
2022-10-22T08:23:14.524Z,37.40
2022-10-22T08:26:42.063Z,34.30
2022-10-22T08:30:10.946Z,33.60
2022-10-22T08:33:39.084Z,32.70
2022-10-22T08:37:08.547Z,30.90
2022-10-22T08:40:39.408Z,29.90
2022-10-22T08:44:17.857Z,30.60
2022-10-22T08:47:59.018Z,29.60
2022-10-22T08:51:28.333Z,28.60
2022-10-22T08:54:58.238Z,29.10
2022-10-22T09:01:55.540Z,25.00
2022-10-22T09:05:34.960Z,26.70
2022-10-22T09:09:03.751Z,26.50
2022-10-22T09:12:30.901Z,26.10
2022-10-22T09:16:01.591Z,25.20
2022-10-22T09:19:36.090Z,25.90
2022-10-22T09:23:27.387Z,26.00
2022-10-22T09:26:54.263Z,27.30
2022-10-22T09:30:22.979Z,28.30
2022-10-22T09:33:51.934Z,30.20
2022-10-22T09:37:20.396Z,29.10
2022-10-22T09:40:49.885Z,27.70
2022-10-22T09:44:16.698Z,29.40
2022-10-22T09:48:01.081Z,32.30
2022-10-22T09:51:42.373Z,31.90
2022-10-22T09:55:17.909Z,32.20
2022-10-22T09:58:51.356Z,32.00
2022-10-22T10:02:37.408Z,32.80
2022-10-22T10:06:07.416Z,33.30
2022-10-22T10:09:36.424Z,33.40
2022-10-22T10:13:11.647Z,33.70
2022-10-22T10:16:49.284Z,31.50
2022-10-22T10:20:34.676Z,30.60
2022-10-22T10:24:11.943Z,32.80
2022-10-22T10:27:42.320Z,31.90
2022-10-22T10:31:18.709Z,33.30
2022-10-22T10:34:53.037Z,32.50
2022-10-22T10:38:34.158Z,33.40
2022-10-22T10:42:07.988Z,31.80
2022-10-22T10:45:44.748Z,31.00
2022-10-22T10:49:18.236Z,30.60
2022-10-22T10:52:56.442Z,30.10
2022-10-22T10:56:39.091Z,29.40
2022-10-22T11:00:11.044Z,31.20
2022-10-22T11:04:07.520Z,30.50
2022-10-22T11:07:40.628Z,30.70
2022-10-22T11:11:13.936Z,29.30
2022-10-22T11:14:51.983Z,29.90
2022-10-22T11:18:23.680Z,32.40
2022-10-22T11:21:57.578Z,30.30
2022-10-22T11:25:30.199Z,28.50
2022-10-22T11:29:00.225Z,30.30
2022-10-22T11:32:29.347Z,29.60
2022-10-22T11:35:58.616Z,29.80
2022-10-22T11:39:36.592Z,28.90
2022-10-22T11:43:08.644Z,29.30
2022-10-22T11:46:44.834Z,29.30
2022-10-22T11:50:25.367Z,29.60
2022-10-22T11:53:58.667Z,27.40
2022-10-22T11:57:29.854Z,28.90
2022-10-22T12:00:58.055Z,27.60
2022-10-22T12:04:40.806Z,27.80
2022-10-22T12:08:24.306Z,28.00
2022-10-22T12:11:53.449Z,29.20
2022-10-22T12:15:28.138Z,30.10
2022-10-22T12:19:03.072Z,26.80
2022-10-22T12:22:31.933Z,25.10
2022-10-22T12:25:59.467Z,24.80
2022-10-22T12:29:28.562Z,22.00
2022-10-22T12:32:57.091Z,21.60
2022-10-22T12:36:23.924Z,20.90
2022-10-22T12:39:50.668Z,22.00
2022-10-22T12:43:19.941Z,22.10
2022-10-22T12:46:51.758Z,21.90
2022-10-22T12:50:26.717Z,20.90
2022-10-22T12:53:55.441Z,19.40
2022-10-22T12:57:24.297Z,18.80
2022-10-22T13:00:57.323Z,19.00
2022-10-22T13:04:35.061Z,19.20
2022-10-22T13:08:09.984Z,19.40
2022-10-22T13:11:41.849Z,19.80
2022-10-22T13:15:24.436Z,19.60
2022-10-22T13:18:52.261Z,18.70
2022-10-22T13:22:36.334Z,19.30
2022-10-22T13:26:05.965Z,19.50
2022-10-22T13:29:32.526Z,21.40
2022-10-22T13:33:02.070Z,20.70
2022-10-22T13:36:29.150Z,22.30
2022-10-22T13:39:55.780Z,22.30
2022-10-22T13:43:22.830Z,23.40
2022-10-22T13:46:50.036Z,23.80
2022-10-22T13:50:19.744Z,24.40
2022-10-22T13:57:13.392Z,28.30
2022-10-22T14:00:42.101Z,28.30
2022-10-22T14:04:14.637Z,26.30
2022-10-22T14:07:42.224Z,27.30
2022-10-22T14:11:10.879Z,27.30
2022-10-22T14:14:38.476Z,25.40
2022-10-22T14:18:07.257Z,26.20
2022-10-22T14:21:39.568Z,25.30
2022-10-22T14:25:07.133Z,26.70
2022-10-22T14:28:41.053Z,27.10
2022-10-22T14:32:20.192Z,27.50
2022-10-22T14:35:49.201Z,26.30
2022-10-22T14:39:17.799Z,25.80
2022-10-22T14:42:48.866Z,25.90
2022-10-22T14:46:17.963Z,27.20
2022-10-22T14:49:45.624Z,28.20
2022-10-22T14:53:13.752Z,26.60
2022-10-22T14:56:40.542Z,24.40
2022-10-22T15:00:09.912Z,28.10
2022-10-22T15:03:37.133Z,27.90
2022-10-22T15:07:03.908Z,26.80
2022-10-22T15:10:30.658Z,25.10
2022-10-22T15:13:57.259Z,25.10
2022-10-22T15:17:24.127Z,26.40
2022-10-22T15:20:57.740Z,25.20
2022-10-22T15:24:24.592Z,23.30
2022-10-22T15:27:52.571Z,22.60
2022-10-22T15:31:47.541Z,23.10
2022-10-22T15:35:14.509Z,24.70
2022-10-22T15:38:41.431Z,44.20
2022-10-22T15:42:08.449Z,30.90
2022-10-22T15:45:35.158Z,28.90
2022-10-22T15:49:01.739Z,29.20
2022-10-22T15:52:28.508Z,42.40
2022-10-22T15:55:55.309Z,34.30
2022-10-22T15:59:22.243Z,32.00
2022-10-22T16:02:48.889Z,34.90
2022-10-22T16:06:15.408Z,34.50
2022-10-22T16:09:42.122Z,32.00
2022-10-22T16:13:08.667Z,33.50
2022-10-22T16:16:39.611Z,37.30
2022-10-22T16:20:07.370Z,37.20
2022-10-22T16:23:34.571Z,36.10
2022-10-22T16:27:01.189Z,31.90
2022-10-22T16:30:27.871Z,34.20
2022-10-22T16:33:54.732Z,35.10
2022-10-22T16:37:21.933Z,34.90
2022-10-22T16:40:49.456Z,35.40
2022-10-22T16:44:16.322Z,33.70
2022-10-22T16:47:45.789Z,33.90
2022-10-22T16:51:16.029Z,38.10
2022-10-22T16:54:42.701Z,32.20
2022-10-22T16:58:09.582Z,32.80
2022-10-22T17:01:40.699Z,32.90
2022-10-22T17:05:09.558Z,34.40
2022-10-22T17:08:36.881Z,34.20
2022-10-22T17:12:03.751Z,36.40
2022-10-22T17:15:30.570Z,36.10
2022-10-22T17:18:58.189Z,34.00
2022-10-22T17:22:25.261Z,34.80
2022-10-22T17:25:58.567Z,36.90
2022-10-22T17:29:27.043Z,34.80
2022-10-22T17:32:54.564Z,33.20
2022-10-22T17:36:22.745Z,31.60
2022-10-22T17:39:50.125Z,32.00
2022-10-22T17:43:16.690Z,31.10
2022-10-22T17:46:45.309Z,32.10
2022-10-22T17:50:13.378Z,32.90
2022-10-22T17:53:45.656Z,32.50
2022-10-22T17:57:13.833Z,31.50
2022-10-22T18:00:40.759Z,31.10
2022-10-22T18:04:09.361Z,31.50
2022-10-22T18:07:36.006Z,32.90
2022-10-22T18:11:06.094Z,68.20
2022-10-22T18:14:32.721Z,97.00
2022-10-22T18:17:59.306Z,112.70
2022-10-22T18:21:28.174Z,85.40
2022-10-22T18:24:54.800Z,69.30
2022-10-22T18:28:21.796Z,61.60
2022-10-22T18:31:49.213Z,57.30
2022-10-22T18:35:16.019Z,66.80
2022-10-22T18:38:43.287Z,43.70
2022-10-22T18:42:10.378Z,42.00
2022-10-22T18:45:37.082Z,60.10
2022-10-22T18:49:04.472Z,73.70
2022-10-22T18:52:31.326Z,42.20
2022-10-22T18:55:57.961Z,35.90
2022-10-22T18:59:26.077Z,35.00
2022-10-22T19:02:52.794Z,36.90
2022-10-22T19:06:26.312Z,38.10
2022-10-22T19:09:53.012Z,39.50
2022-10-22T19:13:23.226Z,40.50
2022-10-22T19:16:50.312Z,42.90
2022-10-22T19:20:17.412Z,41.60
2022-10-22T19:27:16.909Z,46.60
2022-10-22T19:30:44.723Z,45.40
2022-10-22T19:34:12.331Z,44.20
2022-10-22T19:37:39.179Z,47.10
2022-10-22T19:41:06.544Z,47.30
2022-10-22T19:44:33.174Z,49.60
2022-10-22T19:47:59.938Z,46.40
2022-10-22T19:51:29.739Z,45.70
2022-10-22T19:54:56.609Z,43.50
2022-10-22T19:58:23.215Z,40.50
2022-10-22T20:01:49.955Z,38.90
2022-10-22T20:05:16.677Z,38.50
2022-10-22T20:08:43.825Z,38.70
2022-10-22T20:12:10.696Z,41.40
2022-10-22T20:15:37.691Z,41.20
2022-10-22T20:19:06.252Z,42.60
2022-10-22T20:22:32.927Z,42.40
2022-10-22T20:25:59.556Z,43.80
2022-10-22T20:29:26.234Z,43.50
2022-10-22T20:32:53.250Z,42.30
2022-10-22T20:36:22.132Z,41.90
2022-10-22T20:39:49.752Z,42.50
2022-10-22T20:43:16.406Z,39.30
2022-10-22T20:46:43.916Z,42.60
2022-10-22T20:50:13.485Z,40.50
2022-10-22T20:53:40.443Z,37.10
2022-10-22T20:57:07.369Z,37.80
2022-10-22T21:00:36.082Z,38.00
2022-10-22T21:04:03.039Z,40.30
2022-10-22T21:07:29.701Z,39.30
2022-10-22T21:10:56.430Z,35.90
2022-10-22T21:14:24.241Z,175.30
2022-10-22T21:17:51.869Z,348.20
2022-10-22T21:21:20.001Z,101.20
2022-10-22T21:24:46.920Z,53.00
2022-10-22T21:28:13.738Z,38.20
2022-10-22T21:31:41.030Z,35.00
2022-10-22T21:35:08.617Z,36.80
2022-10-22T21:38:35.670Z,32.90
2022-10-22T21:42:02.394Z,32.80
2022-10-22T21:45:29.163Z,35.90
2022-10-22T21:49:01.489Z,34.40
2022-10-22T21:52:28.694Z,35.50
2022-10-22T21:55:55.480Z,35.60
2022-10-22T21:59:22.056Z,36.60
2022-10-22T22:02:48.983Z,35.20
2022-10-22T22:06:21.129Z,38.10
2022-10-22T22:09:49.578Z,41.20
2022-10-22T22:13:17.351Z,40.90
2022-10-22T22:16:44.009Z,38.00
2022-10-22T22:20:12.153Z,37.00
2022-10-22T22:23:42.062Z,40.30
2022-10-22T22:27:09.348Z,39.20
2022-10-22T22:30:36.476Z,39.40
2022-10-22T22:34:04.578Z,45.20
2022-10-22T22:37:31.297Z,46.70
2022-10-22T22:40:59.452Z,70.20
2022-10-22T22:44:26.601Z,90.00
2022-10-22T22:47:53.473Z,164.00
